sensor_id;sensor_type;location;lat;lon;timestamp;temperature;humidity
28837;DHT22;50669;50.982;11.022;2023-06-26T00:00:57;26.50;81.00
28837;DHT22;50669;50.982;11.022;2023-06-26T00:03:23;26.50;81.00
28837;DHT22;50669;50.982;11.022;2023-06-26T00:05:53;26.50;81.00
28837;DHT22;50669;50.982;11.022;2023-06-26T00:08:18;26.50;81.00
28837;DHT22;50669;50.982;11.022;2023-06-26T00:10:46;26.50;81.00
28837;DHT22;50669;50.982;11.022;2023-06-26T00:13:12;26.50;81.00
28837;DHT22;50669;50.982;11.022;2023-06-26T00:15:40;26.50;81.00
28837;DHT22;50669;50.982;11.022;2023-06-26T00:18:08;26.50;80.90
28837;DHT22;50669;50.982;11.022;2023-06-26T00:20:33;26.50;80.90
28837;DHT22;50669;50.982;11.022;2023-06-26T00:23:02;26.50;80.80
28837;DHT22;50669;50.982;11.022;2023-06-26T00:25:29;26.50;80.90
28837;DHT22;50669;50.982;11.022;2023-06-26T00:27:55;26.50;80.90
28837;DHT22;50669;50.982;11.022;2023-06-26T00:30:20;26.50;80.90
28837;DHT22;50669;50.982;11.022;2023-06-26T00:32:48;26.50;80.90
28837;DHT22;50669;50.982;11.022;2023-06-26T00:35:14;26.50;81.00
28837;DHT22;50669;50.982;11.022;2023-06-26T00:37:42;26.40;80.90
28837;DHT22;50669;50.982;11.022;2023-06-26T00:40:08;26.50;81.00
28837;DHT22;50669;50.982;11.022;2023-06-26T00:42:34;26.40;80.90
28837;DHT22;50669;50.982;11.022;2023-06-26T00:45:00;26.40;80.90
28837;DHT22;50669;50.982;11.022;2023-06-26T00:47:26;26.40;80.90
28837;DHT22;50669;50.982;11.022;2023-06-26T00:49:57;26.40;80.90
28837;DHT22;50669;50.982;11.022;2023-06-26T00:52:22;26.40;81.00
28837;DHT22;50669;50.982;11.022;2023-06-26T00:54:49;26.40;80.90
28837;DHT22;50669;50.982;11.022;2023-06-26T00:57:18;26.40;80.90
28837;DHT22;50669;50.982;11.022;2023-06-26T00:59:44;26.40;81.00
28837;DHT22;50669;50.982;11.022;2023-06-26T01:02:14;26.40;81.00
28837;DHT22;50669;50.982;11.022;2023-06-26T01:04:43;26.40;81.10
28837;DHT22;50669;50.982;11.022;2023-06-26T01:07:15;26.40;81.10
28837;DHT22;50669;50.982;11.022;2023-06-26T01:09:45;26.40;81.10
28837;DHT22;50669;50.982;11.022;2023-06-26T01:12:11;26.40;81.10
28837;DHT22;50669;50.982;11.022;2023-06-26T01:14:37;26.40;81.10
28837;DHT22;50669;50.982;11.022;2023-06-26T01:17:03;26.40;81.10
28837;DHT22;50669;50.982;11.022;2023-06-26T01:19:30;26.40;81.10
28837;DHT22;50669;50.982;11.022;2023-06-26T01:25:18;26.40;81.10
28837;DHT22;50669;50.982;11.022;2023-06-26T01:27:48;26.40;81.10
28837;DHT22;50669;50.982;11.022;2023-06-26T01:30:16;26.40;81.10
28837;DHT22;50669;50.982;11.022;2023-06-26T01:32:44;26.40;81.10
28837;DHT22;50669;50.982;11.022;2023-06-26T01:35:14;26.40;81.20
28837;DHT22;50669;50.982;11.022;2023-06-26T01:37:40;26.40;81.20
28837;DHT22;50669;50.982;11.022;2023-06-26T01:40:06;26.30;81.10
28837;DHT22;50669;50.982;11.022;2023-06-26T01:42:33;26.40;81.20
28837;DHT22;50669;50.982;11.022;2023-06-26T01:45:05;26.30;81.10
28837;DHT22;50669;50.982;11.022;2023-06-26T01:47:37;26.40;81.20
28837;DHT22;50669;50.982;11.022;2023-06-26T01:50:14;26.30;81.10
28837;DHT22;50669;50.982;11.022;2023-06-26T01:52:46;26.30;81.10
28837;DHT22;50669;50.982;11.022;2023-06-26T01:55:54;26.30;81.10
28837;DHT22;50669;50.982;11.022;2023-06-26T01:58:25;26.30;81.10
28837;DHT22;50669;50.982;11.022;2023-06-26T02:00:53;26.30;81.20
28837;DHT22;50669;50.982;11.022;2023-06-26T02:03:21;26.30;81.20
28837;DHT22;50669;50.982;11.022;2023-06-26T02:05:51;26.30;81.20
28837;DHT22;50669;50.982;11.022;2023-06-26T02:08:19;26.30;81.20
28837;DHT22;50669;50.982;11.022;2023-06-26T02:10:48;26.30;81.20
28837;DHT22;50669;50.982;11.022;2023-06-26T02:13:16;26.30;81.20
28837;DHT22;50669;50.982;11.022;2023-06-26T02:15:48;26.30;81.20
28837;DHT22;50669;50.982;11.022;2023-06-26T02:18:16;26.30;81.20
28837;DHT22;50669;50.982;11.022;2023-06-26T02:20:48;26.30;81.30
28837;DHT22;50669;50.982;11.022;2023-06-26T02:23:14;26.30;81.40
28837;DHT22;50669;50.982;11.022;2023-06-26T02:25:40;26.30;81.40
28837;DHT22;50669;50.982;11.022;2023-06-26T02:28:06;26.30;81.40
28837;DHT22;50669;50.982;11.022;2023-06-26T02:30:31;26.30;81.40
28837;DHT22;50669;50.982;11.022;2023-06-26T02:32:57;26.20;81.30
28837;DHT22;50669;50.982;11.022;2023-06-26T02:35:22;26.30;81.40
28837;DHT22;50669;50.982;11.022;2023-06-26T02:37:50;26.30;81.40
28837;DHT22;50669;50.982;11.022;2023-06-26T02:40:18;26.20;81.40
28837;DHT22;50669;50.982;11.022;2023-06-26T02:42:51;26.20;81.30
28837;DHT22;50669;50.982;11.022;2023-06-26T02:45:16;26.20;81.40
28837;DHT22;50669;50.982;11.022;2023-06-26T02:47:44;26.20;81.40
28837;DHT22;50669;50.982;11.022;2023-06-26T02:50:12;26.20;81.40
28837;DHT22;50669;50.982;11.022;2023-06-26T02:52:38;26.20;81.30
28837;DHT22;50669;50.982;11.022;2023-06-26T02:55:05;26.30;81.50
28837;DHT22;50669;50.982;11.022;2023-06-26T02:57:30;26.20;82.20
28837;DHT22;50669;50.982;11.022;2023-06-26T02:59:56;26.20;81.40
28837;DHT22;50669;50.982;11.022;2023-06-26T03:02:24;26.20;81.40
28837;DHT22;50669;50.982;11.022;2023-06-26T03:04:50;26.20;81.50
28837;DHT22;50669;50.982;11.022;2023-06-26T03:07:18;26.20;81.40
28837;DHT22;50669;50.982;11.022;2023-06-26T03:09:46;26.20;81.50
28837;DHT22;50669;50.982;11.022;2023-06-26T03:12:11;26.20;81.60
28837;DHT22;50669;50.982;11.022;2023-06-26T03:14:37;26.20;82.30
28837;DHT22;50669;50.982;11.022;2023-06-26T03:17:03;26.20;81.60
28837;DHT22;50669;50.982;11.022;2023-06-26T03:19:29;26.20;81.60
28837;DHT22;50669;50.982;11.022;2023-06-26T03:21:55;26.20;81.60
28837;DHT22;50669;50.982;11.022;2023-06-26T03:24:23;26.20;81.60
28837;DHT22;50669;50.982;11.022;2023-06-26T03:26:51;26.20;81.60
28837;DHT22;50669;50.982;11.022;2023-06-26T03:29:17;26.20;81.60
28837;DHT22;50669;50.982;11.022;2023-06-26T03:31:45;26.20;81.60
28837;DHT22;50669;50.982;11.022;2023-06-26T03:34:10;26.20;81.60
28837;DHT22;50669;50.982;11.022;2023-06-26T03:36:38;26.20;81.60
28837;DHT22;50669;50.982;11.022;2023-06-26T03:39:04;26.20;81.60
28837;DHT22;50669;50.982;11.022;2023-06-26T03:41:32;26.20;81.70
28837;DHT22;50669;50.982;11.022;2023-06-26T03:43:59;26.20;81.60
28837;DHT22;50669;50.982;11.022;2023-06-26T03:46:26;26.20;81.60
28837;DHT22;50669;50.982;11.022;2023-06-26T03:48:52;26.20;81.60
28837;DHT22;50669;50.982;11.022;2023-06-26T03:51:17;26.20;81.60
28837;DHT22;50669;50.982;11.022;2023-06-26T03:53:43;26.20;81.70
28837;DHT22;50669;50.982;11.022;2023-06-26T03:56:13;26.20;81.60
28837;DHT22;50669;50.982;11.022;2023-06-26T03:58:39;26.20;81.60
28837;DHT22;50669;50.982;11.022;2023-06-26T04:01:05;26.20;81.60
28837;DHT22;50669;50.982;11.022;2023-06-26T04:03:31;26.20;81.60
28837;DHT22;50669;50.982;11.022;2023-06-26T04:05:57;26.20;81.60
28837;DHT22;50669;50.982;11.022;2023-06-26T04:08:24;26.20;81.60
28837;DHT22;50669;50.982;11.022;2023-06-26T04:10:52;26.20;81.60
28837;DHT22;50669;50.982;11.022;2023-06-26T04:13:21;26.20;81.60
28837;DHT22;50669;50.982;11.022;2023-06-26T04:15:49;26.20;81.60
28837;DHT22;50669;50.982;11.022;2023-06-26T04:18:15;26.20;81.60
28837;DHT22;50669;50.982;11.022;2023-06-26T04:21:18;26.20;81.60
28837;DHT22;50669;50.982;11.022;2023-06-26T04:23:47;26.20;81.60
28837;DHT22;50669;50.982;11.022;2023-06-26T04:26:13;26.20;81.60
28837;DHT22;50669;50.982;11.022;2023-06-26T04:28:40;26.20;81.60
28837;DHT22;50669;50.982;11.022;2023-06-26T04:31:05;26.20;81.60
28837;DHT22;50669;50.982;11.022;2023-06-26T04:33:31;26.20;81.60
28837;DHT22;50669;50.982;11.022;2023-06-26T04:36:02;26.20;81.60
28837;DHT22;50669;50.982;11.022;2023-06-26T04:38:28;26.20;81.60
28837;DHT22;50669;50.982;11.022;2023-06-26T04:40:54;26.20;81.60
28837;DHT22;50669;50.982;11.022;2023-06-26T04:43:20;26.20;81.50
28837;DHT22;50669;50.982;11.022;2023-06-26T04:45:48;26.20;81.50
28837;DHT22;50669;50.982;11.022;2023-06-26T04:48:20;26.20;81.50
28837;DHT22;50669;50.982;11.022;2023-06-26T04:50:46;26.20;81.50
28837;DHT22;50669;50.982;11.022;2023-06-26T04:53:22;26.20;81.50
28837;DHT22;50669;50.982;11.022;2023-06-26T04:55:50;26.20;81.50
28837;DHT22;50669;50.982;11.022;2023-06-26T04:58:19;26.20;81.60
28837;DHT22;50669;50.982;11.022;2023-06-26T05:00:49;26.20;81.60
28837;DHT22;50669;50.982;11.022;2023-06-26T05:03:18;26.20;81.60
28837;DHT22;50669;50.982;11.022;2023-06-26T05:05:43;26.20;81.60
28837;DHT22;50669;50.982;11.022;2023-06-26T05:08:16;26.20;81.40
28837;DHT22;50669;50.982;11.022;2023-06-26T05:10:44;26.20;81.50
28837;DHT22;50669;50.982;11.022;2023-06-26T05:13:10;26.20;81.60
28837;DHT22;50669;50.982;11.022;2023-06-26T05:15:36;26.20;81.50
28837;DHT22;50669;50.982;11.022;2023-06-26T05:18:02;26.20;81.50
28837;DHT22;50669;50.982;11.022;2023-06-26T05:20:28;26.20;81.50
28837;DHT22;50669;50.982;11.022;2023-06-26T05:22:54;26.20;81.50
28837;DHT22;50669;50.982;11.022;2023-06-26T05:25:20;26.20;81.50
28837;DHT22;50669;50.982;11.022;2023-06-26T05:27:53;26.20;81.50
28837;DHT22;50669;50.982;11.022;2023-06-26T05:30:19;26.20;81.50
28837;DHT22;50669;50.982;11.022;2023-06-26T05:32:49;26.20;81.50
28837;DHT22;50669;50.982;11.022;2023-06-26T05:35:15;26.20;81.40
28837;DHT22;50669;50.982;11.022;2023-06-26T05:37:42;26.20;82.20
28837;DHT22;50669;50.982;11.022;2023-06-26T05:40:11;26.20;81.50
28837;DHT22;50669;50.982;11.022;2023-06-26T05:42:39;26.20;81.40
28837;DHT22;50669;50.982;11.022;2023-06-26T05:45:09;26.20;81.40
28837;DHT22;50669;50.982;11.022;2023-06-26T05:47:37;26.20;81.50
28837;DHT22;50669;50.982;11.022;2023-06-26T05:50:03;26.20;81.40
28837;DHT22;50669;50.982;11.022;2023-06-26T05:52:29;26.20;81.40
28837;DHT22;50669;50.982;11.022;2023-06-26T05:54:58;26.20;81.40
28837;DHT22;50669;50.982;11.022;2023-06-26T05:57:28;26.20;81.40
28837;DHT22;50669;50.982;11.022;2023-06-26T05:59:55;26.30;81.50
28837;DHT22;50669;50.982;11.022;2023-06-26T06:02:20;26.30;81.50
28837;DHT22;50669;50.982;11.022;2023-06-26T06:04:46;26.20;81.40
28837;DHT22;50669;50.982;11.022;2023-06-26T06:07:12;26.30;81.40
28837;DHT22;50669;50.982;11.022;2023-06-26T06:09:38;26.30;81.50
28837;DHT22;50669;50.982;11.022;2023-06-26T06:12:05;26.30;81.40
28837;DHT22;50669;50.982;11.022;2023-06-26T06:14:34;26.30;81.40
28837;DHT22;50669;50.982;11.022;2023-06-26T06:17:00;26.30;81.50
28837;DHT22;50669;50.982;11.022;2023-06-26T06:19:28;26.30;81.50
28837;DHT22;50669;50.982;11.022;2023-06-26T06:21:56;26.30;81.40
28837;DHT22;50669;50.982;11.022;2023-06-26T06:24:22;26.30;81.40
28837;DHT22;50669;50.982;11.022;2023-06-26T06:26:50;26.30;81.40
28837;DHT22;50669;50.982;11.022;2023-06-26T06:29:15;26.30;81.40
28837;DHT22;50669;50.982;11.022;2023-06-26T06:31:43;26.30;81.40
28837;DHT22;50669;50.982;11.022;2023-06-26T06:34:09;26.30;81.40
28837;DHT22;50669;50.982;11.022;2023-06-26T06:36:40;26.40;82.20
28837;DHT22;50669;50.982;11.022;2023-06-26T06:39:05;26.30;81.40
28837;DHT22;50669;50.982;11.022;2023-06-26T06:41:31;26.30;81.30
28837;DHT22;50669;50.982;11.022;2023-06-26T06:43:59;26.30;81.40
28837;DHT22;50669;50.982;11.022;2023-06-26T06:46:24;26.30;81.30
28837;DHT22;50669;50.982;11.022;2023-06-26T06:48:52;26.30;81.40
28837;DHT22;50669;50.982;11.022;2023-06-26T06:51:21;26.30;81.30
28837;DHT22;50669;50.982;11.022;2023-06-26T06:53:47;26.30;81.30
28837;DHT22;50669;50.982;11.022;2023-06-26T06:56:13;26.30;81.30
28837;DHT22;50669;50.982;11.022;2023-06-26T06:58:41;26.30;82.00
28837;DHT22;50669;50.982;11.022;2023-06-26T07:01:11;26.40;81.40
28837;DHT22;50669;50.982;11.022;2023-06-26T07:03:36;26.30;81.20
28837;DHT22;50669;50.982;11.022;2023-06-26T07:06:04;26.30;81.20
28837;DHT22;50669;50.982;11.022;2023-06-26T07:08:30;26.40;81.40
28837;DHT22;50669;50.982;11.022;2023-06-26T07:10:56;26.30;81.30
28837;DHT22;50669;50.982;11.022;2023-06-26T07:13:24;26.40;81.40
28837;DHT22;50669;50.982;11.022;2023-06-26T07:15:50;26.40;81.30
28837;DHT22;50669;50.982;11.022;2023-06-26T07:18:16;26.40;81.40
28837;DHT22;50669;50.982;11.022;2023-06-26T07:20:42;26.40;81.40
28837;DHT22;50669;50.982;11.022;2023-06-26T07:23:10;26.40;81.30
28837;DHT22;50669;50.982;11.022;2023-06-26T07:25:37;26.40;81.40
28837;DHT22;50669;50.982;11.022;2023-06-26T07:28:05;26.40;81.40
28837;DHT22;50669;50.982;11.022;2023-06-26T07:30:34;26.40;81.30
28837;DHT22;50669;50.982;11.022;2023-06-26T07:33:00;26.40;81.30
28837;DHT22;50669;50.982;11.022;2023-06-26T07:35:30;26.40;81.30
28837;DHT22;50669;50.982;11.022;2023-06-26T07:37:58;26.40;81.20
28837;DHT22;50669;50.982;11.022;2023-06-26T07:40:25;26.40;81.20
28837;DHT22;50669;50.982;11.022;2023-06-26T07:42:53;26.40;81.20
28837;DHT22;50669;50.982;11.022;2023-06-26T07:45:19;26.40;81.30
28837;DHT22;50669;50.982;11.022;2023-06-26T07:47:45;26.40;81.20
28837;DHT22;50669;50.982;11.022;2023-06-26T07:50:11;26.40;81.20
28837;DHT22;50669;50.982;11.022;2023-06-26T07:52:44;26.40;81.20
28837;DHT22;50669;50.982;11.022;2023-06-26T07:55:10;26.40;81.20
28837;DHT22;50669;50.982;11.022;2023-06-26T07:57:36;26.40;81.20
28837;DHT22;50669;50.982;11.022;2023-06-26T08:00:04;26.40;81.20
28837;DHT22;50669;50.982;11.022;2023-06-26T08:02:34;26.40;81.20
28837;DHT22;50669;50.982;11.022;2023-06-26T08:05:00;26.50;81.30
28837;DHT22;50669;50.982;11.022;2023-06-26T08:07:25;26.50;81.30
28837;DHT22;50669;50.982;11.022;2023-06-26T08:09:51;26.50;81.30
28837;DHT22;50669;50.982;11.022;2023-06-26T08:12:17;26.50;81.30
28837;DHT22;50669;50.982;11.022;2023-06-26T08:14:45;26.50;81.30
28837;DHT22;50669;50.982;11.022;2023-06-26T08:17:12;26.50;81.30
28837;DHT22;50669;50.982;11.022;2023-06-26T08:19:40;26.50;81.30
28837;DHT22;50669;50.982;11.022;2023-06-26T08:22:09;26.50;81.30
28837;DHT22;50669;50.982;11.022;2023-06-26T08:24:34;26.50;81.30
28837;DHT22;50669;50.982;11.022;2023-06-26T08:27:04;26.50;81.30
28837;DHT22;50669;50.982;11.022;2023-06-26T08:29:31;26.50;81.30
28837;DHT22;50669;50.982;11.022;2023-06-26T08:31:57;26.50;81.20
28837;DHT22;50669;50.982;11.022;2023-06-26T08:34:22;26.50;81.20
28837;DHT22;50669;50.982;11.022;2023-06-26T08:36:50;26.50;81.30
28837;DHT22;50669;50.982;11.022;2023-06-26T08:39:18;26.50;81.30
28837;DHT22;50669;50.982;11.022;2023-06-26T08:41:44;26.50;81.20
28837;DHT22;50669;50.982;11.022;2023-06-26T08:44:12;26.50;81.30
28837;DHT22;50669;50.982;11.022;2023-06-26T08:46:38;26.50;81.20
28837;DHT22;50669;50.982;11.022;2023-06-26T08:49:28;26.50;81.20
28837;DHT22;50669;50.982;11.022;2023-06-26T08:52:05;26.50;81.20
28837;DHT22;50669;50.982;11.022;2023-06-26T08:54:38;26.50;81.20
28837;DHT22;50669;50.982;11.022;2023-06-26T08:57:08;26.50;81.20
28837;DHT22;50669;50.982;11.022;2023-06-26T08:59:36;26.50;81.10
28837;DHT22;50669;50.982;11.022;2023-06-26T09:02:05;26.50;81.20
28837;DHT22;50669;50.982;11.022;2023-06-26T09:04:30;26.50;81.10
28837;DHT22;50669;50.982;11.022;2023-06-26T09:06:59;26.50;81.10
28837;DHT22;50669;50.982;11.022;2023-06-26T09:09:24;26.60;81.20
28837;DHT22;50669;50.982;11.022;2023-06-26T09:11:50;26.60;81.20
28837;DHT22;50669;50.982;11.022;2023-06-26T09:14:18;26.60;81.20
28837;DHT22;50669;50.982;11.022;2023-06-26T09:16:45;26.60;81.20
28837;DHT22;50669;50.982;11.022;2023-06-26T09:19:11;26.60;81.20
28837;DHT22;50669;50.982;11.022;2023-06-26T09:21:42;26.60;81.10
28837;DHT22;50669;50.982;11.022;2023-06-26T09:24:11;26.50;81.10
28837;DHT22;50669;50.982;11.022;2023-06-26T09:26:38;26.60;81.10
28837;DHT22;50669;50.982;11.022;2023-06-26T09:29:08;26.60;81.10
28837;DHT22;50669;50.982;11.022;2023-06-26T09:31:37;26.60;81.10
28837;DHT22;50669;50.982;11.022;2023-06-26T09:34:05;26.60;81.10
28837;DHT22;50669;50.982;11.022;2023-06-26T09:36:33;26.60;81.20
28837;DHT22;50669;50.982;11.022;2023-06-26T09:39:03;26.60;81.00
28837;DHT22;50669;50.982;11.022;2023-06-26T09:41:30;26.60;81.00
28837;DHT22;50669;50.982;11.022;2023-06-26T09:44:01;26.60;81.00
28837;DHT22;50669;50.982;11.022;2023-06-26T09:46:29;26.60;81.00
28837;DHT22;50669;50.982;11.022;2023-06-26T09:51:31;26.60;81.00
28837;DHT22;50669;50.982;11.022;2023-06-26T09:53:57;26.60;81.80
28837;DHT22;50669;50.982;11.022;2023-06-26T09:56:24;26.60;81.00
28837;DHT22;50669;50.982;11.022;2023-06-26T09:58:52;26.60;81.00
28837;DHT22;50669;50.982;11.022;2023-06-26T10:01:19;26.70;81.10
28837;DHT22;50669;50.982;11.022;2023-06-26T10:03:44;26.70;81.00
28837;DHT22;50669;50.982;11.022;2023-06-26T10:06:12;26.70;81.00
28837;DHT22;50669;50.982;11.022;2023-06-26T10:08:39;26.70;81.00
28837;DHT22;50669;50.982;11.022;2023-06-26T10:11:08;26.70;81.00
28837;DHT22;50669;50.982;11.022;2023-06-26T10:13:39;26.70;81.70
28837;DHT22;50669;50.982;11.022;2023-06-26T10:16:07;26.70;81.00
28837;DHT22;50669;50.982;11.022;2023-06-26T10:18:36;26.70;80.90
28837;DHT22;50669;50.982;11.022;2023-06-26T10:21:04;26.70;81.00
28837;DHT22;50669;50.982;11.022;2023-06-26T10:23:30;26.70;81.00
28837;DHT22;50669;50.982;11.022;2023-06-26T10:25:58;26.70;81.00
28837;DHT22;50669;50.982;11.022;2023-06-26T10:28:29;26.70;80.90
28837;DHT22;50669;50.982;11.022;2023-06-26T10:30:57;26.70;80.90
28837;DHT22;50669;50.982;11.022;2023-06-26T10:33:23;26.70;80.90
28837;DHT22;50669;50.982;11.022;2023-06-26T10:35:49;26.70;81.70
28837;DHT22;50669;50.982;11.022;2023-06-26T10:38:15;26.70;80.80
28837;DHT22;50669;50.982;11.022;2023-06-26T10:40:49;26.70;80.90
28837;DHT22;50669;50.982;11.022;2023-06-26T10:43:18;26.70;80.90
28837;DHT22;50669;50.982;11.022;2023-06-26T10:45:47;26.70;80.90
28837;DHT22;50669;50.982;11.022;2023-06-26T10:48:17;26.70;80.90
28837;DHT22;50669;50.982;11.022;2023-06-26T10:50:47;26.70;80.80
28837;DHT22;50669;50.982;11.022;2023-06-26T10:56:02;26.70;80.80
28837;DHT22;50669;50.982;11.022;2023-06-26T10:58:30;26.70;80.90
28837;DHT22;50669;50.982;11.022;2023-06-26T11:03:40;26.70;80.80
28837;DHT22;50669;50.982;11.022;2023-06-26T11:06:16;26.70;80.80
28837;DHT22;50669;50.982;11.022;2023-06-26T11:14:18;26.70;80.80
28837;DHT22;50669;50.982;11.022;2023-06-26T11:16:46;26.70;80.80
28837;DHT22;50669;50.982;11.022;2023-06-26T11:19:16;26.70;80.80
28837;DHT22;50669;50.982;11.022;2023-06-26T11:21:45;26.80;80.90
28837;DHT22;50669;50.982;11.022;2023-06-26T11:24:21;26.70;80.80
28837;DHT22;50669;50.982;11.022;2023-06-26T11:26:46;26.80;80.80
28837;DHT22;50669;50.982;11.022;2023-06-26T11:29:12;26.80;80.80
28837;DHT22;50669;50.982;11.022;2023-06-26T11:31:39;26.80;80.80
28837;DHT22;50669;50.982;11.022;2023-06-26T11:34:13;26.80;80.80
28837;DHT22;50669;50.982;11.022;2023-06-26T11:36:39;26.80;80.80
28837;DHT22;50669;50.982;11.022;2023-06-26T11:39:09;26.80;80.70
28837;DHT22;50669;50.982;11.022;2023-06-26T11:41:39;26.80;80.80
28837;DHT22;50669;50.982;11.022;2023-06-26T11:44:07;26.80;80.80
28837;DHT22;50669;50.982;11.022;2023-06-26T11:46:36;26.80;80.70
28837;DHT22;50669;50.982;11.022;2023-06-26T11:49:06;26.80;80.70
28837;DHT22;50669;50.982;11.022;2023-06-26T11:51:34;26.80;80.70
28837;DHT22;50669;50.982;11.022;2023-06-26T11:54:02;26.80;80.70
28837;DHT22;50669;50.982;11.022;2023-06-26T11:56:33;26.80;80.60
28837;DHT22;50669;50.982;11.022;2023-06-26T12:01:42;26.90;80.70
28837;DHT22;50669;50.982;11.022;2023-06-26T12:04:11;26.90;80.80
28837;DHT22;50669;50.982;11.022;2023-06-26T12:06:48;26.80;80.60
28837;DHT22;50669;50.982;11.022;2023-06-26T12:09:14;26.80;80.60
28837;DHT22;50669;50.982;11.022;2023-06-26T12:11:45;26.90;80.70
28837;DHT22;50669;50.982;11.022;2023-06-26T12:14:14;26.80;80.60
28837;DHT22;50669;50.982;11.022;2023-06-26T12:16:40;26.90;80.70
28837;DHT22;50669;50.982;11.022;2023-06-26T12:19:07;26.90;80.70
28837;DHT22;50669;50.982;11.022;2023-06-26T12:24:12;26.90;80.60
28837;DHT22;50669;50.982;11.022;2023-06-26T12:26:50;26.90;80.60
28837;DHT22;50669;50.982;11.022;2023-06-26T12:29:20;26.90;80.70
28837;DHT22;50669;50.982;11.022;2023-06-26T12:31:50;26.90;80.50
28837;DHT22;50669;50.982;11.022;2023-06-26T12:34:25;26.90;80.60
28837;DHT22;50669;50.982;11.022;2023-06-26T12:36:51;26.90;80.60
28837;DHT22;50669;50.982;11.022;2023-06-26T12:39:20;26.90;80.60
28837;DHT22;50669;50.982;11.022;2023-06-26T12:41:49;26.90;80.60
28837;DHT22;50669;50.982;11.022;2023-06-26T12:46:49;26.90;80.70
28837;DHT22;50669;50.982;11.022;2023-06-26T12:49:18;26.90;80.70
28837;DHT22;50669;50.982;11.022;2023-06-26T12:51:44;26.90;80.70
28837;DHT22;50669;50.982;11.022;2023-06-26T12:54:10;26.90;81.40
28837;DHT22;50669;50.982;11.022;2023-06-26T12:56:35;26.90;80.70
28837;DHT22;50669;50.982;11.022;2023-06-26T12:59:01;26.90;80.70
28837;DHT22;50669;50.982;11.022;2023-06-26T13:01:27;26.90;80.70
28837;DHT22;50669;50.982;11.022;2023-06-26T13:03:53;26.90;80.70
28837;DHT22;50669;50.982;11.022;2023-06-26T13:06:19;26.90;80.50
28837;DHT22;50669;50.982;11.022;2023-06-26T13:08:45;26.90;80.70
28837;DHT22;50669;50.982;11.022;2023-06-26T13:11:16;26.90;80.60
28837;DHT22;50669;50.982;11.022;2023-06-26T13:13:42;26.90;80.60
28837;DHT22;50669;50.982;11.022;2023-06-26T13:16:08;27.00;80.60
28837;DHT22;50669;50.982;11.022;2023-06-26T13:18:33;27.00;80.50
28837;DHT22;50669;50.982;11.022;2023-06-26T13:20:59;27.00;80.40
28837;DHT22;50669;50.982;11.022;2023-06-26T13:23:25;27.00;80.40
28837;DHT22;50669;50.982;11.022;2023-06-26T13:25:53;27.00;80.30
28837;DHT22;50669;50.982;11.022;2023-06-26T13:28:19;27.10;80.30
28837;DHT22;50669;50.982;11.022;2023-06-26T13:30:47;27.10;80.20
28837;DHT22;50669;50.982;11.022;2023-06-26T13:33:13;27.10;80.20
28837;DHT22;50669;50.982;11.022;2023-06-26T13:35:41;27.10;80.20
28837;DHT22;50669;50.982;11.022;2023-06-26T13:38:08;27.10;80.30
28837;DHT22;50669;50.982;11.022;2023-06-26T13:40:39;27.10;80.90
28837;DHT22;50669;50.982;11.022;2023-06-26T13:43:07;27.20;80.20
28837;DHT22;50669;50.982;11.022;2023-06-26T13:45:35;27.20;80.10
28837;DHT22;50669;50.982;11.022;2023-06-26T13:48:00;27.20;79.90
28837;DHT22;50669;50.982;11.022;2023-06-26T13:50:26;27.20;80.00
28837;DHT22;50669;50.982;11.022;2023-06-26T13:52:52;27.30;80.00
28837;DHT22;50669;50.982;11.022;2023-06-26T13:55:17;27.30;80.00
28837;DHT22;50669;50.982;11.022;2023-06-26T13:57:43;27.30;80.00
28837;DHT22;50669;50.982;11.022;2023-06-26T14:00:09;27.20;80.00
28837;DHT22;50669;50.982;11.022;2023-06-26T14:02:37;27.20;80.00
28837;DHT22;50669;50.982;11.022;2023-06-26T14:05:07;27.30;80.10
28837;DHT22;50669;50.982;11.022;2023-06-26T14:07:36;27.30;80.10
28837;DHT22;50669;50.982;11.022;2023-06-26T14:10:03;27.30;80.00
28837;DHT22;50669;50.982;11.022;2023-06-26T14:12:31;27.40;80.00
28837;DHT22;50669;50.982;11.022;2023-06-26T14:14:57;27.40;79.90
28837;DHT22;50669;50.982;11.022;2023-06-26T14:17:25;27.40;79.80
28837;DHT22;50669;50.982;11.022;2023-06-26T14:19:54;27.40;79.70
28837;DHT22;50669;50.982;11.022;2023-06-26T14:22:22;27.50;79.70
28837;DHT22;50669;50.982;11.022;2023-06-26T14:24:51;27.50;79.70
28837;DHT22;50669;50.982;11.022;2023-06-26T14:27:17;27.50;79.60
28837;DHT22;50669;50.982;11.022;2023-06-26T14:29:42;27.50;79.60
28837;DHT22;50669;50.982;11.022;2023-06-26T14:32:08;27.50;79.50
28837;DHT22;50669;50.982;11.022;2023-06-26T14:34:34;27.50;79.60
28837;DHT22;50669;50.982;11.022;2023-06-26T14:36:59;27.50;79.60
28837;DHT22;50669;50.982;11.022;2023-06-26T14:39:25;27.50;79.60
28837;DHT22;50669;50.982;11.022;2023-06-26T14:41:51;27.50;79.50
28837;DHT22;50669;50.982;11.022;2023-06-26T14:44:19;27.50;79.60
28837;DHT22;50669;50.982;11.022;2023-06-26T14:46:47;27.50;79.70
28837;DHT22;50669;50.982;11.022;2023-06-26T14:49:15;27.50;79.80
28837;DHT22;50669;50.982;11.022;2023-06-26T14:51:41;27.50;79.80
28837;DHT22;50669;50.982;11.022;2023-06-26T14:54:06;27.40;79.70
28837;DHT22;50669;50.982;11.022;2023-06-26T14:56:32;27.40;79.80
28837;DHT22;50669;50.982;11.022;2023-06-26T14:58:58;27.40;79.80
28837;DHT22;50669;50.982;11.022;2023-06-26T15:01:23;27.40;79.80
28837;DHT22;50669;50.982;11.022;2023-06-26T15:03:51;27.50;79.90
28837;DHT22;50669;50.982;11.022;2023-06-26T15:06:17;27.50;79.80
28837;DHT22;50669;50.982;11.022;2023-06-26T15:08:45;27.50;79.80
28837;DHT22;50669;50.982;11.022;2023-06-26T15:11:10;27.50;79.90
28837;DHT22;50669;50.982;11.022;2023-06-26T15:13:36;27.50;79.70
28837;DHT22;50669;50.982;11.022;2023-06-26T15:16:02;27.50;79.70
28837;DHT22;50669;50.982;11.022;2023-06-26T15:18:29;27.50;79.50
28837;DHT22;50669;50.982;11.022;2023-06-26T15:20:55;27.60;79.60
28837;DHT22;50669;50.982;11.022;2023-06-26T15:23:21;27.50;79.60
28837;DHT22;50669;50.982;11.022;2023-06-26T15:25:47;27.50;79.70
28837;DHT22;50669;50.982;11.022;2023-06-26T15:28:15;27.50;79.80
28837;DHT22;50669;50.982;11.022;2023-06-26T15:30:40;27.40;79.80
28837;DHT22;50669;50.982;11.022;2023-06-26T15:33:06;27.40;79.90
28837;DHT22;50669;50.982;11.022;2023-06-26T15:35:32;27.40;79.80
28837;DHT22;50669;50.982;11.022;2023-06-26T15:38:00;27.40;80.00
28837;DHT22;50669;50.982;11.022;2023-06-26T15:40:25;27.40;80.80
28837;DHT22;50669;50.982;11.022;2023-06-26T15:42:51;27.40;80.10